sensor_id;sensor_type;location;lat;lon;timestamp;P1;durP1;ratioP1;P2;durP2;ratioP2
14342;SDS011;7255;53.596;9.960;2023-05-21T00:01:23;3.22;;;2.03;;
14342;SDS011;7255;53.596;9.960;2023-05-21T00:03:49;4.07;;;2.10;;
14342;SDS011;7255;53.596;9.960;2023-05-21T00:06:16;4.60;;;2.15;;
14342;SDS011;7255;53.596;9.960;2023-05-21T00:08:44;3.92;;;1.80;;
14342;SDS011;7255;53.596;9.960;2023-05-21T00:11:12;4.60;;;2.22;;
14342;SDS011;7255;53.596;9.960;2023-05-21T00:13:38;2.22;;;1.65;;
14342;SDS011;7255;53.596;9.960;2023-05-21T00:16:05;3.75;;;1.85;;
14342;SDS011;7255;53.596;9.960;2023-05-21T00:18:31;3.30;;;2.08;;
14342;SDS011;7255;53.596;9.960;2023-05-21T00:20:58;2.62;;;1.77;;
14342;SDS011;7255;53.596;9.960;2023-05-21T00:23:25;4.15;;;2.00;;
14342;SDS011;7255;53.596;9.960;2023-05-21T00:25:52;3.17;;;1.98;;
14342;SDS011;7255;53.596;9.960;2023-05-21T00:28:19;3.47;;;1.80;;
14342;SDS011;7255;53.596;9.960;2023-05-21T00:30:45;3.75;;;2.20;;
14342;SDS011;7255;53.596;9.960;2023-05-21T00:33:12;2.00;;;1.80;;
14342;SDS011;7255;53.596;9.960;2023-05-21T00:35:38;3.17;;;1.80;;
14342;SDS011;7255;53.596;9.960;2023-05-21T00:38:05;2.42;;;1.70;;
14342;SDS011;7255;53.596;9.960;2023-05-21T00:40:32;2.85;;;1.80;;
14342;SDS011;7255;53.596;9.960;2023-05-21T00:42:59;2.92;;;1.73;;
14342;SDS011;7255;53.596;9.960;2023-05-21T00:45:27;2.50;;;1.80;;
14342;SDS011;7255;53.596;9.960;2023-05-21T00:47:53;2.27;;;1.70;;
14342;SDS011;7255;53.596;9.960;2023-05-21T00:50:20;2.50;;;1.60;;
14342;SDS011;7255;53.596;9.960;2023-05-21T00:52:48;3.42;;;2.00;;
14342;SDS011;7255;53.596;9.960;2023-05-21T00:55:15;4.10;;;1.92;;
14342;SDS011;7255;53.596;9.960;2023-05-21T00:57:42;3.03;;;2.00;;
14342;SDS011;7255;53.596;9.960;2023-05-21T01:00:10;3.42;;;1.80;;
14342;SDS011;7255;53.596;9.960;2023-05-21T01:02:40;4.80;;;2.10;;
14342;SDS011;7255;53.596;9.960;2023-05-21T01:05:08;3.25;;;1.70;;
14342;SDS011;7255;53.596;9.960;2023-05-21T01:07:35;2.37;;;1.90;;
14342;SDS011;7255;53.596;9.960;2023-05-21T01:10:04;2.92;;;1.95;;
14342;SDS011;7255;53.596;9.960;2023-05-21T01:12:32;3.80;;;1.70;;
14342;SDS011;7255;53.596;9.960;2023-05-21T01:15:00;3.15;;;1.87;;
14342;SDS011;7255;53.596;9.960;2023-05-21T01:17:27;3.80;;;1.87;;
14342;SDS011;7255;53.596;9.960;2023-05-21T01:19:56;2.20;;;1.75;;
14342;SDS011;7255;53.596;9.960;2023-05-21T01:22:23;2.87;;;1.80;;
14342;SDS011;7255;53.596;9.960;2023-05-21T01:24:52;4.35;;;1.98;;
14342;SDS011;7255;53.596;9.960;2023-05-21T01:27:19;3.37;;;1.95;;
14342;SDS011;7255;53.596;9.960;2023-05-21T01:29:45;4.03;;;2.10;;
14342;SDS011;7255;53.596;9.960;2023-05-21T01:32:13;4.43;;;1.85;;
14342;SDS011;7255;53.596;9.960;2023-05-21T01:34:46;5.40;;;2.00;;
14342;SDS011;7255;53.596;9.960;2023-05-21T01:37:20;4.53;;;1.70;;
14342;SDS011;7255;53.596;9.960;2023-05-21T01:40:02;2.97;;;1.70;;
14342;SDS011;7255;53.596;9.960;2023-05-21T01:42:33;3.42;;;1.67;;
14342;SDS011;7255;53.596;9.960;2023-05-21T01:45:02;2.75;;;1.67;;
14342;SDS011;7255;53.596;9.960;2023-05-21T01:47:31;3.77;;;1.67;;
14342;SDS011;7255;53.596;9.960;2023-05-21T01:49:57;3.80;;;1.80;;
14342;SDS011;7255;53.596;9.960;2023-05-21T01:52:24;2.72;;;1.92;;
14342;SDS011;7255;53.596;9.960;2023-05-21T01:54:51;2.22;;;1.80;;
14342;SDS011;7255;53.596;9.960;2023-05-21T01:57:19;2.47;;;1.80;;
14342;SDS011;7255;53.596;9.960;2023-05-21T01:59:46;4.15;;;1.90;;
14342;SDS011;7255;53.596;9.960;2023-05-21T02:02:12;2.10;;;1.70;;
14342;SDS011;7255;53.596;9.960;2023-05-21T02:04:39;3.90;;;2.00;;
14342;SDS011;7255;53.596;9.960;2023-05-21T02:07:05;2.90;;;1.70;;
14342;SDS011;7255;53.596;9.960;2023-05-21T02:09:32;1.98;;;1.60;;
14342;SDS011;7255;53.596;9.960;2023-05-21T02:11:58;2.12;;;1.75;;
14342;SDS011;7255;53.596;9.960;2023-05-21T02:14:26;2.97;;;1.90;;
14342;SDS011;7255;53.596;9.960;2023-05-21T02:16:53;2.75;;;1.60;;
14342;SDS011;7255;53.596;9.960;2023-05-21T02:19:20;3.45;;;1.70;;
14342;SDS011;7255;53.596;9.960;2023-05-21T02:21:47;2.65;;;1.80;;
14342;SDS011;7255;53.596;9.960;2023-05-21T02:24:13;3.00;;;1.77;;
14342;SDS011;7255;53.596;9.960;2023-05-21T02:26:39;3.15;;;1.90;;
14342;SDS011;7255;53.596;9.960;2023-05-21T02:29:06;2.60;;;1.75;;
14342;SDS011;7255;53.596;9.960;2023-05-21T02:31:34;4.53;;;2.12;;
14342;SDS011;7255;53.596;9.960;2023-05-21T02:34:00;3.33;;;2.10;;
14342;SDS011;7255;53.596;9.960;2023-05-21T02:36:27;3.50;;;2.07;;
14342;SDS011;7255;53.596;9.960;2023-05-21T02:38:57;3.72;;;1.87;;
14342;SDS011;7255;53.596;9.960;2023-05-21T02:41:23;3.40;;;1.77;;
14342;SDS011;7255;53.596;9.960;2023-05-21T02:43:50;4.00;;;2.05;;
14342;SDS011;7255;53.596;9.960;2023-05-21T02:46:17;3.95;;;1.92;;
14342;SDS011;7255;53.596;9.960;2023-05-21T02:48:44;3.78;;;2.00;;
14342;SDS011;7255;53.596;9.960;2023-05-21T02:51:11;3.50;;;1.87;;
14342;SDS011;7255;53.596;9.960;2023-05-21T02:53:37;3.40;;;1.90;;
14342;SDS011;7255;53.596;9.960;2023-05-21T02:56:04;2.97;;;1.95;;
14342;SDS011;7255;53.596;9.960;2023-05-21T02:58:30;3.08;;;1.80;;
14342;SDS011;7255;53.596;9.960;2023-05-21T03:00:57;3.37;;;2.22;;
14342;SDS011;7255;53.596;9.960;2023-05-21T03:03:23;4.45;;;2.40;;
14342;SDS011;7255;53.596;9.960;2023-05-21T03:05:51;3.00;;;2.22;;
14342;SDS011;7255;53.596;9.960;2023-05-21T03:08:17;4.07;;;2.20;;
14342;SDS011;7255;53.596;9.960;2023-05-21T03:10:44;4.65;;;2.30;;
14342;SDS011;7255;53.596;9.960;2023-05-21T03:13:10;4.15;;;2.25;;
14342;SDS011;7255;53.596;9.960;2023-05-21T03:15:36;5.50;;;2.25;;
14342;SDS011;7255;53.596;9.960;2023-05-21T03:18:03;4.07;;;2.20;;
14342;SDS011;7255;53.596;9.960;2023-05-21T03:20:29;4.90;;;2.45;;
14342;SDS011;7255;53.596;9.960;2023-05-21T03:22:58;4.55;;;2.40;;
14342;SDS011;7255;53.596;9.960;2023-05-21T03:25:24;3.95;;;2.50;;
14342;SDS011;7255;53.596;9.960;2023-05-21T03:27:50;3.97;;;2.40;;
14342;SDS011;7255;53.596;9.960;2023-05-21T03:30:17;3.70;;;2.30;;
14342;SDS011;7255;53.596;9.960;2023-05-21T03:32:43;6.85;;;2.50;;
14342;SDS011;7255;53.596;9.960;2023-05-21T03:35:10;5.95;;;2.40;;
14342;SDS011;7255;53.596;9.960;2023-05-21T03:37:36;4.47;;;2.60;;
14342;SDS011;7255;53.596;9.960;2023-05-21T03:40:04;3.90;;;2.30;;
14342;SDS011;7255;53.596;9.960;2023-05-21T03:42:32;3.73;;;2.27;;
14342;SDS011;7255;53.596;9.960;2023-05-21T03:44:58;6.18;;;2.78;;
14342;SDS011;7255;53.596;9.960;2023-05-21T03:47:24;5.22;;;2.55;;
14342;SDS011;7255;53.596;9.960;2023-05-21T03:49:50;4.07;;;2.22;;
14342;SDS011;7255;53.596;9.960;2023-05-21T03:52:17;3.03;;;2.40;;
14342;SDS011;7255;53.596;9.960;2023-05-21T03:54:43;6.72;;;3.05;;
14342;SDS011;7255;53.596;9.960;2023-05-21T03:57:11;5.65;;;3.12;;
14342;SDS011;7255;53.596;9.960;2023-05-21T03:59:37;3.62;;;2.62;;
14342;SDS011;7255;53.596;9.960;2023-05-21T04:02:03;5.75;;;2.90;;
14342;SDS011;7255;53.596;9.960;2023-05-21T04:04:30;4.32;;;3.08;;
14342;SDS011;7255;53.596;9.960;2023-05-21T04:06:57;4.60;;;2.72;;
14342;SDS011;7255;53.596;9.960;2023-05-21T04:09:24;5.20;;;2.70;;
14342;SDS011;7255;53.596;9.960;2023-05-21T04:11:51;3.80;;;2.65;;
14342;SDS011;7255;53.596;9.960;2023-05-21T04:14:19;4.50;;;2.67;;
14342;SDS011;7255;53.596;9.960;2023-05-21T04:16:45;5.35;;;2.90;;
14342;SDS011;7255;53.596;9.960;2023-05-21T04:19:13;6.20;;;3.00;;
14342;SDS011;7255;53.596;9.960;2023-05-21T04:21:39;6.10;;;3.30;;
14342;SDS011;7255;53.596;9.960;2023-05-21T04:24:05;4.70;;;2.92;;
14342;SDS011;7255;53.596;9.960;2023-05-21T04:26:32;4.10;;;2.60;;
14342;SDS011;7255;53.596;9.960;2023-05-21T04:28:59;4.80;;;2.87;;
14342;SDS011;7255;53.596;9.960;2023-05-21T04:31:28;4.10;;;2.67;;
14342;SDS011;7255;53.596;9.960;2023-05-21T04:33:55;5.65;;;2.65;;
14342;SDS011;7255;53.596;9.960;2023-05-21T04:36:21;5.87;;;2.72;;
14342;SDS011;7255;53.596;9.960;2023-05-21T04:38:48;4.05;;;3.00;;
14342;SDS011;7255;53.596;9.960;2023-05-21T04:41:14;6.03;;;2.83;;
14342;SDS011;7255;53.596;9.960;2023-05-21T04:43:42;6.40;;;2.72;;
14342;SDS011;7255;53.596;9.960;2023-05-21T04:46:09;5.28;;;2.75;;
14342;SDS011;7255;53.596;9.960;2023-05-21T04:48:36;3.58;;;2.40;;
14342;SDS011;7255;53.596;9.960;2023-05-21T04:51:03;5.45;;;2.70;;
14342;SDS011;7255;53.596;9.960;2023-05-21T04:53:29;5.00;;;2.83;;
14342;SDS011;7255;53.596;9.960;2023-05-21T04:55:56;4.00;;;2.60;;
14342;SDS011;7255;53.596;9.960;2023-05-21T04:58:23;5.43;;;2.72;;
14342;SDS011;7255;53.596;9.960;2023-05-21T05:00:50;4.85;;;2.78;;
14342;SDS011;7255;53.596;9.960;2023-05-21T05:03:17;3.80;;;2.80;;
14342;SDS011;7255;53.596;9.960;2023-05-21T05:05:45;6.00;;;2.60;;
14342;SDS011;7255;53.596;9.960;2023-05-21T05:08:12;4.10;;;2.65;;
14342;SDS011;7255;53.596;9.960;2023-05-21T05:10:38;6.55;;;2.85;;
14342;SDS011;7255;53.596;9.960;2023-05-21T05:13:04;4.60;;;2.93;;
14342;SDS011;7255;53.596;9.960;2023-05-21T05:15:31;4.87;;;2.60;;
14342;SDS011;7255;53.596;9.960;2023-05-21T05:17:57;3.72;;;2.60;;
14342;SDS011;7255;53.596;9.960;2023-05-21T05:20:23;4.22;;;2.55;;
14342;SDS011;7255;53.596;9.960;2023-05-21T05:22:51;4.32;;;2.72;;
14342;SDS011;7255;53.596;9.960;2023-05-21T05:25:18;5.53;;;2.67;;
14342;SDS011;7255;53.596;9.960;2023-05-21T05:27:45;4.03;;;2.87;;
14342;SDS011;7255;53.596;9.960;2023-05-21T05:30:11;4.65;;;2.87;;
14342;SDS011;7255;53.596;9.960;2023-05-21T05:32:37;5.32;;;3.00;;
14342;SDS011;7255;53.596;9.960;2023-05-21T05:35:04;3.65;;;2.60;;
14342;SDS011;7255;53.596;9.960;2023-05-21T05:37:31;4.35;;;2.75;;
14342;SDS011;7255;53.596;9.960;2023-05-21T05:39:59;4.80;;;3.00;;
14342;SDS011;7255;53.596;9.960;2023-05-21T05:42:25;4.70;;;2.57;;
14342;SDS011;7255;53.596;9.960;2023-05-21T05:44:52;4.30;;;3.10;;
14342;SDS011;7255;53.596;9.960;2023-05-21T05:47:18;5.15;;;3.00;;
14342;SDS011;7255;53.596;9.960;2023-05-21T05:49:45;4.63;;;3.13;;
14342;SDS011;7255;53.596;9.960;2023-05-21T05:52:12;4.47;;;3.00;;
14342;SDS011;7255;53.596;9.960;2023-05-21T05:54:38;5.37;;;3.30;;
14342;SDS011;7255;53.596;9.960;2023-05-21T05:57:06;3.92;;;3.10;;
14342;SDS011;7255;53.596;9.960;2023-05-21T05:59:32;4.40;;;3.20;;
14342;SDS011;7255;53.596;9.960;2023-05-21T06:01:58;5.43;;;3.17;;
14342;SDS011;7255;53.596;9.960;2023-05-21T06:04:25;6.03;;;4.10;;
14342;SDS011;7255;53.596;9.960;2023-05-21T06:06:53;3.35;;;2.92;;
14342;SDS011;7255;53.596;9.960;2023-05-21T06:09:21;5.10;;;3.87;;
14342;SDS011;7255;53.596;9.960;2023-05-21T06:11:47;5.57;;;3.80;;
14342;SDS011;7255;53.596;9.960;2023-05-21T06:14:15;6.25;;;3.20;;
14342;SDS011;7255;53.596;9.960;2023-05-21T06:16:42;5.15;;;3.15;;
14342;SDS011;7255;53.596;9.960;2023-05-21T06:19:08;4.28;;;2.97;;
14342;SDS011;7255;53.596;9.960;2023-05-21T06:21:34;5.50;;;3.62;;
14342;SDS011;7255;53.596;9.960;2023-05-21T06:24:00;5.65;;;3.45;;
14342;SDS011;7255;53.596;9.960;2023-05-21T06:26:27;3.65;;;3.10;;
14342;SDS011;7255;53.596;9.960;2023-05-21T06:28:53;5.80;;;3.00;;
14342;SDS011;7255;53.596;9.960;2023-05-21T06:31:21;4.70;;;3.05;;
14342;SDS011;7255;53.596;9.960;2023-05-21T06:33:48;6.97;;;3.63;;
14342;SDS011;7255;53.596;9.960;2023-05-21T06:36:15;4.40;;;3.37;;
14342;SDS011;7255;53.596;9.960;2023-05-21T06:38:41;5.50;;;3.50;;
14342;SDS011;7255;53.596;9.960;2023-05-21T06:41:08;5.30;;;3.75;;
14342;SDS011;7255;53.596;9.960;2023-05-21T06:43:34;4.40;;;3.37;;
14342;SDS011;7255;53.596;9.960;2023-05-21T06:46:01;4.93;;;3.30;;
14342;SDS011;7255;53.596;9.960;2023-05-21T06:48:29;4.80;;;3.50;;
14342;SDS011;7255;53.596;9.960;2023-05-21T06:50:55;6.47;;;3.80;;
14342;SDS011;7255;53.596;9.960;2023-05-21T06:53:21;4.12;;;3.50;;
14342;SDS011;7255;53.596;9.960;2023-05-21T06:55:47;5.95;;;3.87;;
14342;SDS011;7255;53.596;9.960;2023-05-21T06:58:17;4.43;;;3.30;;
14342;SDS011;7255;53.596;9.960;2023-05-21T07:00:43;3.97;;;3.35;;
14342;SDS011;7255;53.596;9.960;2023-05-21T07:03:10;7.97;;;4.47;;
14342;SDS011;7255;53.596;9.960;2023-05-21T07:05:37;4.60;;;3.62;;
14342;SDS011;7255;53.596;9.960;2023-05-21T07:08:04;5.47;;;3.97;;
14342;SDS011;7255;53.596;9.960;2023-05-21T07:10:30;5.60;;;3.78;;
14342;SDS011;7255;53.596;9.960;2023-05-21T07:12:57;7.17;;;4.27;;
14342;SDS011;7255;53.596;9.960;2023-05-21T07:15:23;5.50;;;4.30;;
14342;SDS011;7255;53.596;9.960;2023-05-21T07:17:49;4.97;;;3.83;;
14342;SDS011;7255;53.596;9.960;2023-05-21T07:20:16;6.82;;;4.60;;
14342;SDS011;7255;53.596;9.960;2023-05-21T07:22:43;6.47;;;4.83;;
14342;SDS011;7255;53.596;9.960;2023-05-21T07:25:10;8.15;;;4.80;;
14342;SDS011;7255;53.596;9.960;2023-05-21T07:27:36;6.15;;;4.93;;
14342;SDS011;7255;53.596;9.960;2023-05-21T07:30:03;5.57;;;4.68;;
14342;SDS011;7255;53.596;9.960;2023-05-21T07:32:29;4.70;;;4.20;;
14342;SDS011;7255;53.596;9.960;2023-05-21T07:34:58;5.75;;;4.75;;
14342;SDS011;7255;53.596;9.960;2023-05-21T07:37:26;6.63;;;4.70;;
14342;SDS011;7255;53.596;9.960;2023-05-21T07:39:55;5.40;;;4.32;;
14342;SDS011;7255;53.596;9.960;2023-05-21T07:42:21;6.60;;;5.18;;
14342;SDS011;7255;53.596;9.960;2023-05-21T07:44:48;6.15;;;4.80;;
14342;SDS011;7255;53.596;9.960;2023-05-21T07:47:14;5.72;;;4.30;;
14342;SDS011;7255;53.596;9.960;2023-05-21T07:49:40;6.62;;;4.93;;
14342;SDS011;7255;53.596;9.960;2023-05-21T07:52:07;7.65;;;5.10;;
14342;SDS011;7255;53.596;9.960;2023-05-21T07:54:33;6.63;;;5.43;;
14342;SDS011;7255;53.596;9.960;2023-05-21T07:57:01;6.28;;;5.07;;
14342;SDS011;7255;53.596;9.960;2023-05-21T07:59:27;7.82;;;5.90;;
14342;SDS011;7255;53.596;9.960;2023-05-21T08:01:54;7.12;;;5.70;;
14342;SDS011;7255;53.596;9.960;2023-05-21T08:04:21;6.17;;;5.27;;
14342;SDS011;7255;53.596;9.960;2023-05-21T08:06:47;8.00;;;6.05;;
14342;SDS011;7255;53.596;9.960;2023-05-21T08:09:13;7.22;;;5.70;;
14342;SDS011;7255;53.596;9.960;2023-05-21T08:11:40;7.12;;;5.78;;
14342;SDS011;7255;53.596;9.960;2023-05-21T08:14:07;7.05;;;5.90;;
14342;SDS011;7255;53.596;9.960;2023-05-21T08:16:34;6.20;;;5.60;;
14342;SDS011;7255;53.596;9.960;2023-05-21T08:19:00;6.47;;;5.77;;
14342;SDS011;7255;53.596;9.960;2023-05-21T08:21:26;8.03;;;5.70;;
14342;SDS011;7255;53.596;9.960;2023-05-21T08:23:53;7.87;;;6.15;;
14342;SDS011;7255;53.596;9.960;2023-05-21T08:26:19;7.80;;;6.60;;
14342;SDS011;7255;53.596;9.960;2023-05-21T08:28:46;7.32;;;6.35;;
14342;SDS011;7255;53.596;9.960;2023-05-21T08:31:13;10.07;;;6.47;;
14342;SDS011;7255;53.596;9.960;2023-05-21T08:33:40;7.55;;;6.00;;
14342;SDS011;7255;53.596;9.960;2023-05-21T08:36:15;6.93;;;6.03;;
14342;SDS011;7255;53.596;9.960;2023-05-21T08:38:41;7.75;;;6.60;;
14342;SDS011;7255;53.596;9.960;2023-05-21T08:41:07;7.50;;;6.60;;
14342;SDS011;7255;53.596;9.960;2023-05-21T08:43:34;7.20;;;6.12;;
14342;SDS011;7255;53.596;9.960;2023-05-21T08:46:02;8.88;;;6.45;;
14342;SDS011;7255;53.596;9.960;2023-05-21T08:48:31;7.93;;;6.05;;
14342;SDS011;7255;53.596;9.960;2023-05-21T08:50:58;7.73;;;6.50;;
14342;SDS011;7255;53.596;9.960;2023-05-21T08:53:24;7.43;;;6.72;;
14342;SDS011;7255;53.596;9.960;2023-05-21T08:55:52;8.43;;;6.70;;
14342;SDS011;7255;53.596;9.960;2023-05-21T08:58:19;6.93;;;5.97;;
14342;SDS011;7255;53.596;9.960;2023-05-21T09:00:46;7.00;;;6.22;;
14342;SDS011;7255;53.596;9.960;2023-05-21T09:03:12;9.25;;;6.45;;
14342;SDS011;7255;53.596;9.960;2023-05-21T09:05:41;8.45;;;6.45;;
14342;SDS011;7255;53.596;9.960;2023-05-21T09:08:11;8.70;;;7.10;;
14342;SDS011;7255;53.596;9.960;2023-05-21T09:10:44;9.25;;;7.30;;
14342;SDS011;7255;53.596;9.960;2023-05-21T09:13:14;9.02;;;7.10;;
14342;SDS011;7255;53.596;9.960;2023-05-21T09:15:42;8.30;;;6.78;;
14342;SDS011;7255;53.596;9.960;2023-05-21T09:18:09;7.75;;;6.35;;
14342;SDS011;7255;53.596;9.960;2023-05-21T09:20:35;8.98;;;6.75;;
14342;SDS011;7255;53.596;9.960;2023-05-21T09:23:03;6.95;;;6.22;;
14342;SDS011;7255;53.596;9.960;2023-05-21T09:25:31;8.38;;;6.20;;
14342;SDS011;7255;53.596;9.960;2023-05-21T09:27:57;7.47;;;6.78;;
14342;SDS011;7255;53.596;9.960;2023-05-21T09:30:24;7.93;;;6.70;;
14342;SDS011;7255;53.596;9.960;2023-05-21T09:32:51;7.37;;;6.25;;
14342;SDS011;7255;53.596;9.960;2023-05-21T09:35:18;8.30;;;7.07;;
14342;SDS011;7255;53.596;9.960;2023-05-21T09:37:46;8.80;;;6.37;;
14342;SDS011;7255;53.596;9.960;2023-05-21T09:40:16;7.13;;;6.43;;
14342;SDS011;7255;53.596;9.960;2023-05-21T09:42:44;8.10;;;7.07;;
14342;SDS011;7255;53.596;9.960;2023-05-21T09:45:12;8.05;;;6.85;;
14342;SDS011;7255;53.596;9.960;2023-05-21T09:47:43;7.68;;;6.78;;
14342;SDS011;7255;53.596;9.960;2023-05-21T09:50:11;7.55;;;6.85;;
14342;SDS011;7255;53.596;9.960;2023-05-21T09:52:38;7.05;;;6.35;;
14342;SDS011;7255;53.596;9.960;2023-05-21T09:55:05;7.85;;;7.03;;
14342;SDS011;7255;53.596;9.960;2023-05-21T09:57:38;8.67;;;7.20;;
14342;SDS011;7255;53.596;9.960;2023-05-21T10:00:06;8.40;;;7.00;;
14342;SDS011;7255;53.596;9.960;2023-05-21T10:02:34;8.15;;;7.22;;
14342;SDS011;7255;53.596;9.960;2023-05-21T10:05:03;7.80;;;6.93;;
14342;SDS011;7255;53.596;9.960;2023-05-21T10:07:33;7.87;;;7.07;;
14342;SDS011;7255;53.596;9.960;2023-05-21T10:10:02;8.50;;;7.10;;
14342;SDS011;7255;53.596;9.960;2023-05-21T10:12:31;9.15;;;8.02;;
14342;SDS011;7255;53.596;9.960;2023-05-21T10:15:00;8.75;;;7.32;;
14342;SDS011;7255;53.596;9.960;2023-05-21T10:17:29;8.35;;;6.93;;
14342;SDS011;7255;53.596;9.960;2023-05-21T10:19:55;8.73;;;7.37;;
14342;SDS011;7255;53.596;9.960;2023-05-21T10:22:24;8.43;;;6.70;;
14342;SDS011;7255;53.596;9.960;2023-05-21T10:24:51;7.70;;;6.78;;
14342;SDS011;7255;53.596;9.960;2023-05-21T10:27:17;7.43;;;6.50;;
14342;SDS011;7255;53.596;9.960;2023-05-21T10:29:46;9.02;;;7.00;;
14342;SDS011;7255;53.596;9.960;2023-05-21T10:32:14;7.78;;;6.97;;
14342;SDS011;7255;53.596;9.960;2023-05-21T10:34:41;7.95;;;7.03;;
14342;SDS011;7255;53.596;9.960;2023-05-21T10:37:08;8.50;;;7.45;;
14342;SDS011;7255;53.596;9.960;2023-05-21T10:39:37;7.72;;;6.40;;
14342;SDS011;7255;53.596;9.960;2023-05-21T10:42:07;7.93;;;7.10;;
14342;SDS011;7255;53.596;9.960;2023-05-21T10:44:43;7.55;;;6.78;;
14342;SDS011;7255;53.596;9.960;2023-05-21T10:47:30;8.38;;;6.85;;
14342;SDS011;7255;53.596;9.960;2023-05-21T10:50:22;8.23;;;6.37;;
14342;SDS011;7255;53.596;9.960;2023-05-21T10:53:01;7.47;;;6.35;;
14342;SDS011;7255;53.596;9.960;2023-05-21T10:55:37;8.30;;;6.47;;
14342;SDS011;7255;53.596;9.960;2023-05-21T10:58:20;7.43;;;6.70;;
14342;SDS011;7255;53.596;9.960;2023-05-21T11:01:25;8.00;;;7.18;;
14342;SDS011;7255;53.596;9.960;2023-05-21T11:03:53;8.32;;;6.60;;
14342;SDS011;7255;53.596;9.960;2023-05-21T11:06:21;7.13;;;6.03;;
14342;SDS011;7255;53.596;9.960;2023-05-21T11:08:49;7.12;;;5.85;;
14342;SDS011;7255;53.596;9.960;2023-05-21T11:11:30;7.78;;;6.15;;
14342;SDS011;7255;53.596;9.960;2023-05-21T11:16:52;7.40;;;5.95;;
14342;SDS011;7255;53.596;9.960;2023-05-21T11:19:19;8.80;;;6.78;;
14342;SDS011;7255;53.596;9.960;2023-05-21T11:21:48;7.80;;;6.85;;
14342;SDS011;7255;53.596;9.960;2023-05-21T11:24:17;7.95;;;5.93;;
14342;SDS011;7255;53.596;9.960;2023-05-21T11:26:59;6.67;;;6.03;;
14342;SDS011;7255;53.596;9.960;2023-05-21T11:29:30;7.97;;;6.60;;
14342;SDS011;7255;53.596;9.960;2023-05-21T11:32:09;6.12;;;5.53;;
14342;SDS011;7255;53.596;9.960;2023-05-21T11:34:39;6.60;;;5.67;;
14342;SDS011;7255;53.596;9.960;2023-05-21T11:37:28;9.30;;;6.20;;
14342;SDS011;7255;53.596;9.960;2023-05-21T11:40:18;7.80;;;6.12;;
14342;SDS011;7255;53.596;9.960;2023-05-21T11:42:49;7.03;;;6.05;;
14342;SDS011;7255;53.596;9.960;2023-05-21T11:45:18;6.37;;;5.68;;
14342;SDS011;7255;53.596;9.960;2023-05-21T11:47:46;6.23;;;5.40;;
14342;SDS011;7255;53.596;9.960;2023-05-21T11:50:13;7.25;;;5.62;;
14342;SDS011;7255;53.596;9.960;2023-05-21T11:52:41;7.07;;;5.78;;
14342;SDS011;7255;53.596;9.960;2023-05-21T11:55:08;8.88;;;6.00;;
14342;SDS011;7255;53.596;9.960;2023-05-21T11:57:36;6.10;;;5.47;;
14342;SDS011;7255;53.596;9.960;2023-05-21T12:00:03;6.93;;;6.23;;
14342;SDS011;7255;53.596;9.960;2023-05-21T12:02:37;6.40;;;5.80;;
14342;SDS011;7255;53.596;9.960;2023-05-21T12:05:05;7.18;;;5.60;;
14342;SDS011;7255;53.596;9.960;2023-05-21T12:07:33;7.32;;;6.40;;
14342;SDS011;7255;53.596;9.960;2023-05-21T12:09:59;6.32;;;5.72;;
14342;SDS011;7255;53.596;9.960;2023-05-21T12:12:26;6.53;;;5.47;;
14342;SDS011;7255;53.596;9.960;2023-05-21T12:14:53;6.12;;;5.50;;
14342;SDS011;7255;53.596;9.960;2023-05-21T12:17:21;7.15;;;6.12;;
14342;SDS011;7255;53.596;9.960;2023-05-21T12:19:49;7.05;;;5.93;;
14342;SDS011;7255;53.596;9.960;2023-05-21T12:22:18;7.77;;;6.60;;
14342;SDS011;7255;53.596;9.960;2023-05-21T12:24:45;6.45;;;5.72;;
14342;SDS011;7255;53.596;9.960;2023-05-21T12:27:12;7.10;;;6.40;;
14342;SDS011;7255;53.596;9.960;2023-05-21T12:29:41;7.43;;;6.13;;
14342;SDS011;7255;53.596;9.960;2023-05-21T12:32:10;7.40;;;6.40;;
14342;SDS011;7255;53.596;9.960;2023-05-21T12:34:37;7.55;;;6.15;;
14342;SDS011;7255;53.596;9.960;2023-05-21T12:37:06;7.15;;;6.28;;
14342;SDS011;7255;53.596;9.960;2023-05-21T12:39:37;7.32;;;6.40;;
14342;SDS011;7255;53.596;9.960;2023-05-21T12:42:04;6.70;;;6.10;;
14342;SDS011;7255;53.596;9.960;2023-05-21T12:44:31;7.50;;;6.55;;
14342;SDS011;7255;53.596;9.960;2023-05-21T12:46:57;7.60;;;6.32;;
14342;SDS011;7255;53.596;9.960;2023-05-21T12:49:30;7.12;;;6.12;;
14342;SDS011;7255;53.596;9.960;2023-05-21T12:51:58;7.03;;;6.32;;
14342;SDS011;7255;53.596;9.960;2023-05-21T12:54:27;7.22;;;6.25;;
14342;SDS011;7255;53.596;9.960;2023-05-21T12:56:57;6.72;;;6.03;;
14342;SDS011;7255;53.596;9.960;2023-05-21T12:59:23;7.32;;;6.50;;
14342;SDS011;7255;53.596;9.960;2023-05-21T13:01:50;7.68;;;6.18;;
14342;SDS011;7255;53.596;9.960;2023-05-21T13:04:17;6.78;;;6.07;;
14342;SDS011;7255;53.596;9.960;2023-05-21T13:06:44;6.80;;;6.20;;
14342;SDS011;7255;53.596;9.960;2023-05-21T13:09:10;9.13;;;7.17;;
14342;SDS011;7255;53.596;9.960;2023-05-21T13:11:36;6.78;;;6.00;;
14342;SDS011;7255;53.596;9.960;2023-05-21T13:14:04;7.70;;;6.43;;
14342;SDS011;7255;53.596;9.960;2023-05-21T13:16:30;6.95;;;6.05;;
14342;SDS011;7255;53.596;9.960;2023-05-21T13:18:57;6.97;;;6.23;;
14342;SDS011;7255;53.596;9.960;2023-05-21T13:21:23;8.10;;;6.12;;
14342;SDS011;7255;53.596;9.960;2023-05-21T13:23:49;6.85;;;6.15;;
14342;SDS011;7255;53.596;9.960;2023-05-21T13:26:16;7.07;;;6.32;;
14342;SDS011;7255;53.596;9.960;2023-05-21T13:28:42;8.90;;;6.27;;
14342;SDS011;7255;53.596;9.960;2023-05-21T13:31:09;6.85;;;5.93;;
14342;SDS011;7255;53.596;9.960;2023-05-21T13:33:38;6.57;;;5.90;;
14342;SDS011;7255;53.596;9.960;2023-05-21T13:36:04;7.55;;;6.22;;
14342;SDS011;7255;53.596;9.960;2023-05-21T13:38:31;7.62;;;6.50;;
14342;SDS011;7255;53.596;9.960;2023-05-21T13:40:57;7.07;;;6.37;;
14342;SDS011;7255;53.596;9.960;2023-05-21T13:43:24;6.87;;;5.93;;
14342;SDS011;7255;53.596;9.960;2023-05-21T13:45:50;7.47;;;6.10;;
14342;SDS011;7255;53.596;9.960;2023-05-21T13:48:18;6.53;;;5.93;;
14342;SDS011;7255;53.596;9.960;2023-05-21T13:50:44;6.60;;;6.00;;
14342;SDS011;7255;53.596;9.960;2023-05-21T13:53:11;7.03;;;5.67;;
14342;SDS011;7255;53.596;9.960;2023-05-21T13:55:37;7.22;;;6.10;;
14342;SDS011;7255;53.596;9.960;2023-05-21T13:58:04;6.45;;;5.80;;
14342;SDS011;7255;53.596;9.960;2023-05-21T14:00:30;7.10;;;6.15;;
14342;SDS011;7255;53.596;9.960;2023-05-21T14:02:56;7.68;;;6.28;;
14342;SDS011;7255;53.596;9.960;2023-05-21T14:05:24;6.85;;;6.03;;
14342;SDS011;7255;53.596;9.960;2023-05-21T14:07:50;7.03;;;6.07;;
14342;SDS011;7255;53.596;9.960;2023-05-21T14:10:16;6.78;;;6.12;;
14342;SDS011;7255;53.596;9.960;2023-05-21T14:12:44;6.72;;;5.85;;
14342;SDS011;7255;53.596;9.960;2023-05-21T14:15:11;6.47;;;5.57;;
14342;SDS011;7255;53.596;9.960;2023-05-21T14:17:37;6.20;;;5.60;;
14342;SDS011;7255;53.596;9.960;2023-05-21T14:20:04;6.57;;;5.82;;
14342;SDS011;7255;53.596;9.960;2023-05-21T14:22:33;6.30;;;5.70;;
14342;SDS011;7255;53.596;9.960;2023-05-21T14:24:59;5.93;;;5.35;;
14342;SDS011;7255;53.596;9.960;2023-05-21T14:27:27;5.95;;;5.35;;
14342;SDS011;7255;53.596;9.960;2023-05-21T14:29:53;6.90;;;5.22;;
14342;SDS011;7255;53.596;9.960;2023-05-21T14:32:19;6.43;;;5.35;;
14342;SDS011;7255;53.596;9.960;2023-05-21T14:34:46;6.40;;;5.53;;
14342;SDS011;7255;53.596;9.960;2023-05-21T14:37:12;5.78;;;5.28;;
14342;SDS011;7255;53.596;9.960;2023-05-21T14:39:39;5.85;;;5.22;;
14342;SDS011;7255;53.596;9.960;2023-05-21T14:42:06;6.07;;;5.47;;
14342;SDS011;7255;53.596;9.960;2023-05-21T14:44:32;6.57;;;4.70;;
14342;SDS011;7255;53.596;9.960;2023-05-21T14:46:58;5.53;;;4.87;;
14342;SDS011;7255;53.596;9.960;2023-05-21T14:49:25;6.25;;;5.10;;
14342;SDS011;7255;53.596;9.960;2023-05-21T14:51:51;6.97;;;5.45;;
14342;SDS011;7255;53.596;9.960;2023-05-21T14:54:17;6.32;;;4.82;;
14342;SDS011;7255;53.596;9.960;2023-05-21T14:56:45;5.40;;;4.90;;
14342;SDS011;7255;53.596;9.960;2023-05-21T14:59:11;6.37;;;4.72;;
14342;SDS011;7255;53.596;9.960;2023-05-21T15:01:38;5.82;;;4.93;;
14342;SDS011;7255;53.596;9.960;2023-05-21T15:04:04;6.60;;;5.22;;
14342;SDS011;7255;53.596;9.960;2023-05-21T15:06:31;5.40;;;4.80;;